Aérodrome :
LOGIN :

S'inscrire | Disclaimer

   EN    FR    IT 

 










Légende :    VFR   VFR Marginal   IFR   IFR Intensif   IFR Très Intensif
Visi : 
Plafond : 
>= 8 km
>= 3000ft
5 à 8 km
1000 à 3000 ft
1500m à 5 km
500 à 1000 ft
800 à 1500m
200 à 500 ft
< 800m
< 200 ft
Symboles :   Orages  Brouillard  Fortes neiges  Fortes précipitations  Vent > 20 kt
SIGMETs :   Divers  Orages  Givrage  Turbulence  Onde Orograph.  Cendres Volcan.







- Altitude de l'aérodrome : 1090 ft
- Code IATA : CFE
- Voir les cartes d'approche


LFLC - Clermont-Ferrand Auvergne

DERNIER METAR :
  • 271300Z AUTO 16008KT 120V220 CAVOK 30/10 Q1017 NOSIG

METARs EXPIRÉS :
  • 271230Z AUTO 17007KT 140V220 CAVOK 30/11 Q1017 NOSIG
  • 271200Z AUTO 17006KT 130V200 CAVOK 30/12 Q1017 NOSIG
  • 271130Z AUTO 15004KT 080V240 CAVOK 29/11 Q1017 NOSIG
  • 271100Z AUTO 15005KT 100V220 CAVOK 28/12 Q1017 NOSIG
  • 271030Z AUTO 17005KT 140V210 CAVOK 27/10 Q1018 NOSIG

TAF TAF LFLC
Valide du 27 à 09h jusqu'au 28 à 09h UTC


270800Z 2709/2809 18005KT CAVOK
TEMPO 2715/2718 05005KT
BECMG 2721/2723 18010KT
ATIS : +33 4 73 62 74 38
Pas de NOTAMs connus pour ce terrain.



MET'MAP, la Météo Aéronautique d'un coup d'oeil ! - Copyright ORBIFLY Décembre 2007 - Disclaimer

ORBIFLY MET'MAP TEAM :

Programmation & Développement : Alexandra Zaïnal
Conception & Développement : Baudouin d'Aumeries
Co-Programmation & Développement : Marc-Olivier Méhu
Soutien technique & logistique : Manuel Goepfert

Contact : metmap@orbifly.com




SOURCES & CREDITS :

   NOAA